createdAt,value
2018-11-12T00:00:10.222Z,101193.29
2018-11-12T00:02:38.482Z,101194.11
2018-11-12T00:05:06.774Z,101201.14
2018-11-12T00:07:35.216Z,101204.73
2018-11-12T00:10:03.735Z,101214.86
2018-11-12T00:12:32.003Z,101214.61
2018-11-12T00:15:00.534Z,101211.51
2018-11-12T00:17:28.990Z,101218.44
2018-11-12T00:19:58.314Z,101219.26
2018-11-12T00:22:26.898Z,101228.09
2018-11-12T00:24:55.403Z,101236.44
2018-11-12T00:27:23.802Z,101234.63
2018-11-12T00:29:53.226Z,101239.99
2018-11-12T00:32:21.517Z,101245.34
2018-11-12T00:34:49.900Z,101248.33
2018-11-12T00:37:18.267Z,101250.23
2018-11-12T00:39:46.522Z,101254.16
2018-11-12T00:42:14.799Z,101242.86
2018-11-12T00:44:43.061Z,101239.16
2018-11-12T00:47:11.410Z,101239.05
2018-11-12T00:49:39.677Z,101251.32
2018-11-12T00:52:08.470Z,101253.94
2018-11-12T00:54:36.749Z,101258.61
2018-11-12T00:57:05.279Z,101258.00
2018-11-12T00:59:33.542Z,101271.71
2018-11-12T01:02:01.823Z,101273.95
2018-11-12T01:04:30.103Z,101274.80
2018-11-12T01:06:58.449Z,101277.78
2018-11-12T01:09:26.718Z,101277.66
2018-11-12T01:11:54.999Z,101278.27
2018-11-12T01:14:23.262Z,101285.28
2018-11-12T01:16:51.542Z,101290.41
2018-11-12T01:19:19.858Z,101290.42
2018-11-12T01:21:48.121Z,101288.02
2018-11-12T01:24:16.539Z,101294.32
2018-11-12T01:26:44.798Z,101296.73
2018-11-12T01:29:13.063Z,101297.31
2018-11-12T01:31:41.362Z,101297.52
2018-11-12T01:34:09.838Z,101315.52
2018-11-12T01:36:38.202Z,101309.33
2018-11-12T01:39:09.038Z,101316.36
2018-11-12T01:41:37.558Z,101319.31
2018-11-12T01:44:06.038Z,101326.94
2018-11-12T01:46:34.494Z,101327.67
2018-11-12T01:49:02.755Z,101327.67
2018-11-12T01:51:31.014Z,101332.30
2018-11-12T01:53:59.309Z,101333.38
2018-11-12T01:56:27.739Z,101336.95
2018-11-12T01:58:56.010Z,101332.09
2018-11-12T02:01:24.592Z,101334.27
2018-11-12T02:03:52.964Z,101325.09
2018-11-12T02:06:21.250Z,101340.73
2018-11-12T02:08:49.577Z,101345.70
2018-11-12T02:11:17.999Z,101342.88
2018-11-12T02:13:46.294Z,101347.28
2018-11-12T02:16:16.323Z,101350.59
2018-11-12T02:18:47.135Z,101348.69
2018-11-12T02:21:18.242Z,101350.92
2018-11-12T02:23:46.590Z,101354.34
2018-11-12T02:26:14.866Z,101352.34
2018-11-12T02:28:43.131Z,101354.97
2018-11-12T02:31:11.418Z,101356.75
2018-11-12T02:33:39.682Z,101358.17
2018-11-12T02:36:07.966Z,101340.64
2018-11-12T02:38:36.304Z,101356.63
2018-11-12T02:41:04.597Z,101359.73
2018-11-12T02:43:32.862Z,101362.02
2018-11-12T02:46:01.138Z,101361.30
2018-11-12T02:48:29.406Z,101365.23
2018-11-12T02:50:57.690Z,101357.67
2018-11-12T02:53:25.953Z,101351.72
2018-11-12T02:55:54.234Z,101354.09
2018-11-12T02:58:22.501Z,101356.72
2018-11-12T03:00:50.774Z,101356.05
2018-11-12T03:03:19.050Z,101354.58
2018-11-12T03:05:49.238Z,101347.94
2018-11-12T03:08:17.558Z,101348.14
2018-11-12T03:10:45.851Z,101347.31
2018-11-12T03:13:14.122Z,101354.94
2018-11-12T03:15:42.515Z,101349.69
2018-11-12T03:18:10.885Z,101339.84
2018-11-12T03:20:39.203Z,101342.58
2018-11-12T03:23:07.519Z,101345.95
2018-11-12T03:25:35.823Z,101350.59
2018-11-12T03:28:04.092Z,101345.73
2018-11-12T03:30:32.399Z,101355.47
2018-11-12T03:33:00.850Z,101360.47
2018-11-12T03:35:29.114Z,101367.62
2018-11-12T03:37:57.410Z,101359.88
2018-11-12T03:40:25.674Z,101368.09
2018-11-12T03:42:53.981Z,101390.75
2018-11-12T03:45:23.578Z,101385.28
2018-11-12T03:47:51.866Z,101393.73
2018-11-12T03:50:21.539Z,101394.69
2018-11-12T03:52:49.834Z,101397.45
2018-11-12T03:55:19.313Z,101395.40
2018-11-12T03:57:47.618Z,101380.98
2018-11-12T04:00:21.332Z,101381.44
2018-11-12T04:02:49.523Z,101390.13
2018-11-12T04:05:17.798Z,101381.31
2018-11-12T04:07:46.294Z,101385.24
2018-11-12T04:10:16.549Z,101400.72
2018-11-12T04:12:44.928Z,101410.25
2018-11-12T04:15:15.981Z,101412.75
2018-11-12T04:17:44.266Z,101414.78
2018-11-12T04:20:13.873Z,101413.91
2018-11-12T04:22:46.310Z,101408.83
2018-11-12T04:25:14.598Z,101415.85
2018-11-12T04:27:42.894Z,101417.76
2018-11-12T04:30:13.518Z,101414.55
2018-11-12T04:32:42.509Z,101414.81
2018-11-12T04:35:11.393Z,101430.06
2018-11-12T04:37:39.854Z,101433.00
2018-11-12T04:40:12.090Z,101429.58
2018-11-12T04:42:40.932Z,101421.36
2018-11-12T04:45:10.999Z,101433.16
2018-11-12T04:47:39.435Z,101419.59
2018-11-12T04:50:09.907Z,101411.80
2018-11-12T04:52:38.345Z,101417.91
2018-11-12T04:55:07.844Z,101422.80
2018-11-12T04:57:36.318Z,101439.11
2018-11-12T05:00:05.985Z,101439.70
2018-11-12T05:02:34.366Z,101447.61
2018-11-12T05:05:02.663Z,101445.98
2018-11-12T05:07:30.956Z,101437.84
2018-11-12T05:09:59.234Z,101428.31
2018-11-12T05:12:27.506Z,101416.39
2018-11-12T05:14:55.828Z,101423.70
2018-11-12T05:17:24.110Z,101436.56
2018-11-12T05:19:52.447Z,101456.05
2018-11-12T05:22:20.726Z,101446.63
2018-11-12T05:24:49.034Z,101455.78
2018-11-12T05:27:17.322Z,101456.41
2018-11-12T05:29:45.646Z,101448.51
2018-11-12T05:32:13.930Z,101447.55
2018-11-12T05:34:42.245Z,101442.40
2018-11-12T05:37:10.514Z,101445.67
2018-11-12T05:39:38.858Z,101442.52
2018-11-12T05:42:07.149Z,101460.86
2018-11-12T05:44:35.453Z,101456.73
2018-11-12T05:47:03.763Z,101467.69
2018-11-12T05:49:32.067Z,101476.67
2018-11-12T05:52:00.642Z,101474.69
2018-11-12T05:54:29.018Z,101478.14
2018-11-12T05:56:57.362Z,101458.53
2018-11-12T05:59:25.657Z,101469.16
2018-11-12T06:01:53.962Z,101480.96
2018-11-12T06:04:22.242Z,101476.23
2018-11-12T06:06:50.594Z,101472.94
2018-11-12T06:09:18.889Z,101475.55
2018-11-12T06:11:47.358Z,101477.55
2018-11-12T06:14:15.674Z,101483.13
2018-11-12T06:16:43.965Z,101486.67
2018-11-12T06:19:12.257Z,101482.02
2018-11-12T06:21:40.538Z,101494.37
2018-11-12T06:24:08.814Z,101486.52
2018-11-12T06:26:37.109Z,101478.66
2018-11-12T06:29:05.597Z,101476.20
2018-11-12T06:31:34.038Z,101486.80
2018-11-12T06:34:02.470Z,101493.55
2018-11-12T06:36:31.724Z,101490.89
2018-11-12T06:38:59.965Z,101490.61
2018-11-12T06:41:28.253Z,101496.72
2018-11-12T06:43:56.666Z,101491.25
2018-11-12T06:46:25.025Z,101495.17
2018-11-12T06:48:53.585Z,101496.05
2018-11-12T06:51:21.870Z,101487.67
2018-11-12T06:53:50.145Z,101489.10
2018-11-12T06:56:18.447Z,101490.53
2018-11-12T06:58:46.765Z,101501.56
2018-11-12T07:01:15.039Z,101502.52
2018-11-12T07:03:44.305Z,101481.88
2018-11-12T07:06:12.723Z,101479.61
2018-11-12T07:08:41.225Z,101483.06
2018-11-12T07:11:09.532Z,101502.40
2018-11-12T07:13:38.978Z,101505.58
2018-11-12T07:16:07.274Z,101502.05
2018-11-12T07:18:35.599Z,101492.80
2018-11-12T07:21:04.370Z,101491.64
2018-11-12T07:23:32.693Z,101486.72
2018-11-12T07:26:00.983Z,101494.18
2018-11-12T07:28:29.274Z,101496.65
2018-11-12T07:30:57.662Z,101479.57
2018-11-12T07:33:25.882Z,101474.75
2018-11-12T07:35:54.247Z,101477.26
2018-11-12T07:38:22.522Z,101474.04
2018-11-12T07:40:50.899Z,101472.67
2018-11-12T07:43:19.182Z,101475.02
2018-11-12T07:45:47.658Z,101468.16
2018-11-12T07:48:16.041Z,101480.20
2018-11-12T07:50:44.330Z,101478.44
2018-11-12T07:53:12.618Z,101480.01
2018-11-12T07:55:40.913Z,101476.89
2018-11-12T07:58:09.210Z,101484.80
2018-11-12T08:00:37.522Z,101478.95
2018-11-12T08:03:08.199Z,101477.04
2018-11-12T08:05:36.976Z,101488.98
2018-11-12T08:08:05.738Z,101503.02
2018-11-12T08:10:34.033Z,101512.86
2018-11-12T08:13:02.322Z,101504.17
2018-11-12T08:15:30.615Z,101507.68
2018-11-12T08:17:59.947Z,101521.52
2018-11-12T08:20:28.247Z,101515.66
2018-11-12T08:22:56.608Z,101519.27
2018-11-12T08:25:24.918Z,101512.11
2018-11-12T08:27:53.210Z,101507.45
2018-11-12T08:30:23.827Z,101504.83
2018-11-12T08:32:53.576Z,101504.09
2018-11-12T08:35:21.894Z,101489.78
2018-11-12T08:37:50.794Z,101492.03
2018-11-12T08:40:20.253Z,101478.52
2018-11-12T08:42:48.539Z,101479.86
2018-11-12T08:45:17.190Z,101479.73
2018-11-12T08:47:47.690Z,101481.88
2018-11-12T08:50:20.666Z,101479.34
2018-11-12T08:52:49.772Z,101480.69
2018-11-12T08:55:19.446Z,101477.20
2018-11-12T08:57:49.291Z,101471.59
2018-11-12T09:00:18.282Z,101487.58
2018-11-12T09:02:46.673Z,101490.77
2018-11-12T09:05:15.966Z,101485.64
2018-11-12T09:07:45.802Z,101486.12
2018-11-12T09:10:16.414Z,101483.37
2018-11-12T09:12:44.922Z,101485.94
2018-11-12T09:15:13.582Z,101495.61
2018-11-12T09:17:42.679Z,101488.16
2018-11-12T09:20:13.810Z,101498.00
2018-11-12T09:22:42.126Z,101499.10
2018-11-12T09:25:14.050Z,101495.38
2018-11-12T09:27:42.362Z,101490.28
2018-11-12T09:30:12.750Z,101496.60
2018-11-12T09:32:41.755Z,101491.73
2018-11-12T09:35:12.374Z,101494.91
2018-11-12T09:37:40.695Z,101491.55
2018-11-12T09:40:12.103Z,101489.86
2018-11-12T09:42:40.402Z,101486.96
2018-11-12T09:45:09.575Z,101488.91
2018-11-12T09:47:37.922Z,101495.59
2018-11-12T09:50:08.246Z,101490.33
2018-11-12T09:52:36.553Z,101486.79
2018-11-12T09:55:05.305Z,101494.30
2018-11-12T09:57:33.693Z,101484.30
2018-11-12T10:00:02.010Z,101480.03
2018-11-12T10:02:30.792Z,101484.30
2018-11-12T10:04:59.890Z,101482.31
2018-11-12T10:07:28.677Z,101480.03
2018-11-12T10:09:57.099Z,101480.30
2018-11-12T10:12:25.243Z,101485.21
2018-11-12T10:14:54.847Z,101478.08
2018-11-12T10:17:22.913Z,101473.02
2018-11-12T10:19:48.494Z,101465.82
2018-11-12T10:22:16.790Z,101467.83
2018-11-12T10:24:45.080Z,101465.20
2018-11-12T10:27:13.410Z,101463.00
2018-11-12T10:29:41.673Z,101459.61
2018-11-12T10:32:10.106Z,101457.98
2018-11-12T10:34:38.454Z,101460.97
2018-11-12T10:37:06.762Z,101456.78
2018-11-12T10:39:35.042Z,101455.70
2018-11-12T10:42:03.338Z,101453.45
2018-11-12T10:44:31.614Z,101449.48
2018-11-12T10:46:59.910Z,101448.05
2018-11-12T10:49:28.191Z,101456.27
2018-11-12T10:51:57.766Z,101454.41
2018-11-12T10:54:26.113Z,101445.58
2018-11-12T10:56:54.334Z,101447.42
2018-11-12T10:59:22.637Z,101432.34
2018-11-12T11:01:58.153Z,101426.80
2018-11-12T11:04:29.793Z,101427.00
2018-11-12T11:06:58.265Z,101428.33
2018-11-12T11:09:26.582Z,101423.33
2018-11-12T11:11:54.873Z,101409.58
2018-11-12T11:14:23.162Z,101407.72
2018-11-12T11:16:51.574Z,101410.87
2018-11-12T11:19:19.870Z,101393.23
2018-11-12T11:21:48.150Z,101394.55
2018-11-12T11:24:16.498Z,101389.00
2018-11-12T11:26:44.837Z,101396.02
2018-11-12T11:29:13.062Z,101397.38
2018-11-12T11:31:41.387Z,101397.86
2018-11-12T11:34:09.672Z,101396.37
2018-11-12T11:36:38.030Z,101396.50
2018-11-12T11:39:08.189Z,101391.85
2018-11-12T11:41:36.482Z,101387.91
2018-11-12T11:44:04.919Z,101386.95
2018-11-12T11:46:33.203Z,101384.62
2018-11-12T11:49:01.621Z,101391.20
2018-11-12T11:51:29.950Z,101400.52
2018-11-12T11:53:58.221Z,101394.09
2018-11-12T11:56:27.312Z,101389.10
2018-11-12T11:58:55.658Z,101381.03
2018-11-12T12:01:24.110Z,101387.19
2018-11-12T12:03:56.574Z,101379.17
2018-11-12T12:06:24.858Z,101382.45
2018-11-12T12:08:53.275Z,101382.53
2018-11-12T12:11:21.745Z,101387.17
2018-11-12T12:13:50.125Z,101376.49
2018-11-12T12:16:18.401Z,101377.86
2018-11-12T12:18:46.718Z,101374.45
2018-11-12T12:21:15.014Z,101372.19
2018-11-12T12:23:43.469Z,101364.30
2018-11-12T12:26:12.046Z,101362.69
2018-11-12T12:28:40.562Z,101358.44
2018-11-12T12:31:08.862Z,101352.52
2018-11-12T12:33:37.141Z,101353.64
2018-11-12T12:36:05.683Z,101358.55
2018-11-12T12:38:33.900Z,101356.89
2018-11-12T12:41:02.315Z,101347.55
2018-11-12T12:43:30.698Z,101338.58
2018-11-12T12:45:59.065Z,101335.51
2018-11-12T12:48:27.270Z,101331.41
2018-11-12T12:50:55.570Z,101330.68
2018-11-12T12:53:23.882Z,101327.56
2018-11-12T12:55:52.391Z,101331.06
2018-11-12T12:58:20.562Z,101343.11
2018-11-12T13:00:48.937Z,101340.36
2018-11-12T13:03:17.235Z,101337.55
2018-11-12T13:05:45.513Z,101334.23
2018-11-12T13:08:13.863Z,101337.20
2018-11-12T13:10:42.234Z,101342.03
2018-11-12T13:13:10.515Z,101335.19
2018-11-12T13:15:38.798Z,101338.48
2018-11-12T13:18:07.082Z,101334.71
2018-11-12T13:20:35.367Z,101336.20
2018-11-12T13:23:03.693Z,101326.61
2018-11-12T13:25:32.002Z,101326.02
2018-11-12T13:28:00.378Z,101330.28
2018-11-12T13:30:28.657Z,101321.97
2018-11-12T13:32:56.938Z,101333.19
2018-11-12T13:35:25.937Z,101322.69
2018-11-12T13:37:54.445Z,101317.74
2018-11-12T13:40:24.043Z,101311.55
2018-11-12T13:42:53.860Z,101308.92
2018-11-12T13:45:22.378Z,101307.02
2018-11-12T13:47:50.802Z,101312.86
2018-11-12T13:50:20.428Z,101309.36
2018-11-12T13:52:49.229Z,101299.20
2018-11-12T13:55:18.730Z,101303.06
2018-11-12T13:57:47.045Z,101299.16
2018-11-12T14:00:17.013Z,101300.47
2018-11-12T14:02:46.479Z,101305.25
2018-11-12T14:05:16.486Z,101295.21
2018-11-12T14:07:45.369Z,101288.63
2018-11-12T14:10:15.038Z,101288.63
2018-11-12T14:12:43.922Z,101283.44
2018-11-12T14:15:15.559Z,101298.25
2018-11-12T14:17:44.166Z,101295.80
2018-11-12T14:20:12.525Z,101289.84
2018-11-12T14:22:40.823Z,101295.93
2018-11-12T14:25:11.346Z,101296.78
2018-11-12T14:27:39.657Z,101295.55
2018-11-12T14:30:09.653Z,101296.62
2018-11-12T14:32:38.068Z,101302.09
2018-11-12T14:35:07.418Z,101293.16
2018-11-12T14:37:35.902Z,101295.48
2018-11-12T14:40:04.375Z,101298.63
2018-11-12T14:42:32.678Z,101300.98
2018-11-12T14:45:01.114Z,101301.65
2018-11-12T14:47:29.395Z,101302.58
2018-11-12T14:49:57.670Z,101309.19
2018-11-12T14:52:25.982Z,101298.55
2018-11-12T14:54:54.542Z,101301.05
2018-11-12T14:57:23.258Z,101295.73
2018-11-12T14:59:51.546Z,101298.36
2018-11-12T15:02:19.844Z,101294.41
2018-11-12T15:04:48.548Z,101291.78
2018-11-12T15:07:16.833Z,101296.62
2018-11-12T15:09:45.438Z,101285.89
2018-11-12T15:12:13.724Z,101285.75
2018-11-12T15:14:42.041Z,101291.54
2018-11-12T15:17:10.343Z,101289.16
2018-11-12T15:19:38.598Z,101294.73
2018-11-12T15:22:06.990Z,101281.81
2018-11-12T15:24:35.486Z,101270.22
2018-11-12T15:27:04.596Z,101270.87
2018-11-12T15:29:33.004Z,101259.80
2018-11-12T15:32:01.195Z,101267.28
2018-11-12T15:34:29.478Z,101261.02
2018-11-12T15:36:57.878Z,101264.61
2018-11-12T15:39:26.079Z,101266.38
2018-11-12T15:41:54.373Z,101267.90
2018-11-12T15:44:22.886Z,101268.73
2018-11-12T15:46:51.194Z,101257.13
2018-11-12T15:49:19.480Z,101259.28
2018-11-12T15:51:47.777Z,101246.38
2018-11-12T15:54:16.266Z,101254.58
2018-11-12T15:56:44.579Z,101253.57
2018-11-12T15:59:12.864Z,101257.06
2018-11-12T16:01:41.356Z,101259.14
2018-11-12T16:04:09.654Z,101252.16
2018-11-12T16:06:38.074Z,101248.83
2018-11-12T16:09:10.386Z,101248.20
2018-11-12T16:11:38.683Z,101245.05
2018-11-12T16:14:07.370Z,101235.61
2018-11-12T16:16:36.031Z,101235.27
2018-11-12T16:19:04.519Z,101227.10
2018-11-12T16:21:32.923Z,101225.34
2018-11-12T16:24:01.250Z,101242.70
2018-11-12T16:26:29.592Z,101246.48
2018-11-12T16:28:57.906Z,101258.83
2018-11-12T16:31:26.218Z,101261.36
2018-11-12T16:33:54.505Z,101265.68
2018-11-12T16:36:22.795Z,101260.45
2018-11-12T16:38:51.126Z,101272.67
2018-11-12T16:41:19.411Z,101266.55
2018-11-12T16:43:47.702Z,101272.94
2018-11-12T16:46:16.089Z,101274.80
2018-11-12T16:48:44.486Z,101272.22
2018-11-12T16:51:12.777Z,101260.74
2018-11-12T16:53:41.092Z,101272.81
2018-11-12T16:56:09.379Z,101276.24
2018-11-12T16:58:38.678Z,101289.39
2018-11-12T17:01:07.929Z,101291.94
2018-11-12T17:03:36.182Z,101304.39
2018-11-12T17:06:04.486Z,101296.09
2018-11-12T17:08:32.798Z,101294.95
2018-11-12T17:11:01.093Z,101307.31
2018-11-12T17:13:29.382Z,101305.63
2018-11-12T17:15:57.710Z,101317.59
2018-11-12T17:18:26.026Z,101325.36
2018-11-12T17:20:54.314Z,101330.83
2018-11-12T17:23:22.632Z,101332.07
2018-11-12T17:25:50.936Z,101331.08
2018-11-12T17:28:19.222Z,101337.41
2018-11-12T17:30:47.591Z,101341.28
2018-11-12T17:33:15.826Z,101342.96
2018-11-12T17:35:44.185Z,101349.72
2018-11-12T17:38:12.518Z,101354.02
2018-11-12T17:40:40.811Z,101355.81
2018-11-12T17:43:09.128Z,101359.94
2018-11-12T17:45:37.434Z,101366.33
2018-11-12T17:48:05.993Z,101369.72
2018-11-12T17:50:34.307Z,101371.11
2018-11-12T17:53:02.696Z,101370.55
2018-11-12T17:55:30.974Z,101371.30
2018-11-12T17:57:59.266Z,101376.56
2018-11-12T18:00:33.153Z,101363.64
2018-11-12T18:03:01.446Z,101365.89
2018-11-12T18:05:29.808Z,101373.19
2018-11-12T18:07:58.174Z,101382.12
2018-11-12T18:10:26.429Z,101398.00
2018-11-12T18:12:55.329Z,101397.62
2018-11-12T18:15:24.334Z,101403.13
2018-11-12T18:17:52.746Z,101409.44
2018-11-12T18:20:22.857Z,101405.30
2018-11-12T18:22:52.105Z,101396.82
2018-11-12T18:25:20.393Z,101395.98
2018-11-12T18:27:48.790Z,101396.09
2018-11-12T18:30:20.487Z,101405.88
2018-11-12T18:32:49.773Z,101408.62
2018-11-12T18:35:18.070Z,101411.50
2018-11-12T18:37:46.517Z,101401.58
2018-11-12T18:40:16.236Z,101390.98
2018-11-12T18:42:44.814Z,101403.63
2018-11-12T18:45:15.070Z,101408.88
2018-11-12T18:47:43.627Z,101406.93
2018-11-12T18:50:14.981Z,101414.91
2018-11-12T18:52:43.456Z,101415.75
2018-11-12T18:55:11.726Z,101422.91
2018-11-12T18:57:40.578Z,101439.73
2018-11-12T19:00:10.351Z,101444.16
2018-11-12T19:02:38.910Z,101446.32
2018-11-12T19:05:12.306Z,101452.72
2018-11-12T19:07:41.470Z,101466.45
2018-11-12T19:10:13.216Z,101475.16
2018-11-12T19:12:41.737Z,101467.20
2018-11-12T19:15:12.592Z,101463.10
2018-11-12T19:17:41.201Z,101468.81
2018-11-12T19:20:09.555Z,101474.91
2018-11-12T19:22:37.849Z,101469.05
2018-11-12T19:25:07.966Z,101467.52
2018-11-12T19:27:36.262Z,101476.07
2018-11-12T19:30:05.810Z,101481.23
2018-11-12T19:32:34.170Z,101477.91
2018-11-12T19:35:02.448Z,101507.50
2018-11-12T19:37:30.751Z,101514.63
2018-11-12T19:39:59.030Z,101517.25
2018-11-12T19:42:27.330Z,101510.95
2018-11-12T19:44:55.613Z,101517.87
2018-11-12T19:47:23.946Z,101526.68
2018-11-12T19:49:52.242Z,101544.52
2018-11-12T19:52:20.533Z,101538.60
2018-11-12T19:54:48.818Z,101532.91
2018-11-12T19:57:17.122Z,101527.67
2018-11-12T19:59:45.406Z,101522.14
2018-11-12T20:02:13.702Z,101534.71
2018-11-12T20:04:42.462Z,101527.49
2018-11-12T20:07:10.765Z,101528.68
2018-11-12T20:09:39.054Z,101539.92
2018-11-12T20:12:07.406Z,101540.97
2018-11-12T20:14:35.694Z,101541.15
2018-11-12T20:17:04.302Z,101547.65
2018-11-12T20:19:33.198Z,101545.08
2018-11-12T20:22:01.762Z,101555.48
2018-11-12T20:24:30.061Z,101561.56
2018-11-12T20:26:58.389Z,101570.69
2018-11-12T20:29:27.147Z,101571.69
2018-11-12T20:31:55.464Z,101562.48
2018-11-12T20:34:23.779Z,101553.64
2018-11-12T20:36:52.314Z,101558.83
2018-11-12T20:39:20.598Z,101573.05
2018-11-12T20:41:49.212Z,101566.06
2018-11-12T20:44:17.519Z,101556.31
2018-11-12T20:46:45.918Z,101562.34
2018-11-12T20:49:14.221Z,101563.77
2018-11-12T20:51:42.538Z,101575.23
2018-11-12T20:54:10.825Z,101572.83
2018-11-12T20:56:39.123Z,101586.62
2018-11-12T20:59:07.542Z,101607.81
2018-11-12T21:01:35.842Z,101603.34
2018-11-12T21:04:04.749Z,101610.66
2018-11-12T21:06:33.066Z,101616.51
2018-11-12T21:09:01.347Z,101600.00
2018-11-12T21:11:29.724Z,101601.14
2018-11-12T21:13:57.966Z,101592.19
2018-11-12T21:16:26.258Z,101587.62
2018-11-12T21:18:54.629Z,101607.48
2018-11-12T21:21:23.827Z,101616.17
2018-11-12T21:23:52.102Z,101621.69
2018-11-12T21:26:20.412Z,101637.28
2018-11-12T21:28:48.824Z,101641.55
2018-11-12T21:31:17.054Z,101640.50
2018-11-12T21:33:45.363Z,101640.20
2018-11-12T21:36:13.656Z,101654.50
2018-11-12T21:38:41.965Z,101661.86
2018-11-12T21:41:10.265Z,101647.98
2018-11-12T21:43:38.667Z,101642.73
2018-11-12T21:46:06.879Z,101648.73
2018-11-12T21:48:35.162Z,101647.66
2018-11-12T21:51:03.487Z,101640.23
2018-11-12T21:53:31.774Z,101637.48
2018-11-12T21:56:00.114Z,101642.20
2018-11-12T21:58:28.522Z,101640.84
2018-11-12T22:00:56.862Z,101653.23
2018-11-12T22:03:25.155Z,101663.72
2018-11-12T22:05:53.471Z,101673.66
2018-11-12T22:08:21.803Z,101669.34
2018-11-12T22:10:50.069Z,101668.82
2018-11-12T22:13:18.390Z,101664.56
2018-11-12T22:15:46.699Z,101658.40
2018-11-12T22:18:14.993Z,101654.46
2018-11-12T22:20:43.855Z,101648.65
2018-11-12T22:23:12.159Z,101654.91
2018-11-12T22:25:40.450Z,101669.45
2018-11-12T22:28:08.820Z,101663.77
2018-11-12T22:30:37.038Z,101666.16
2018-11-12T22:33:06.048Z,101668.54
2018-11-12T22:35:34.474Z,101670.69
2018-11-12T22:38:02.785Z,101671.03
2018-11-12T22:40:31.082Z,101669.73
2018-11-12T22:42:59.374Z,101670.77
2018-11-12T22:45:27.681Z,101668.13
2018-11-12T22:47:55.977Z,101669.21
2018-11-12T22:50:24.282Z,101684.91
2018-11-12T22:52:52.646Z,101679.38
2018-11-12T22:55:21.238Z,101665.92
2018-11-12T22:57:49.523Z,101672.00
2018-11-12T23:00:25.269Z,101660.86
2018-11-12T23:02:54.350Z,101664.76
2018-11-12T23:05:22.918Z,101659.16
2018-11-12T23:07:51.765Z,101676.16
2018-11-12T23:10:20.446Z,101666.44
2018-11-12T23:12:48.733Z,101671.34
2018-11-12T23:15:17.524Z,101672.16
2018-11-12T23:17:45.818Z,101681.77
2018-11-12T23:20:24.032Z,101690.09
2018-11-12T23:22:52.738Z,101676.76
2018-11-12T23:25:21.057Z,101680.55
2018-11-12T23:27:49.926Z,101687.83
2018-11-12T23:30:19.416Z,101693.50
2018-11-12T23:32:47.754Z,101696.70
2018-11-12T23:35:17.403Z,101693.64
2018-11-12T23:37:46.395Z,101692.82
2018-11-12T23:40:15.086Z,101673.21
2018-11-12T23:42:43.969Z,101669.22
2018-11-12T23:45:12.331Z,101673.50
2018-11-12T23:47:40.826Z,101683.11
2018-11-12T23:50:14.063Z,101690.23
2018-11-12T23:52:42.918Z,101685.26
2018-11-12T23:55:11.594Z,101696.38
2018-11-12T23:57:39.917Z,101696.12
